Time;durP1;ratioP1;P1;durP2;ratioP2;P2;SDS_P1;SDS_P2;PMS_P1;PMS_P2;Temp;Humidity;BMP_temperature;BMP_pressure;BME280_temperature;BME280_humidity;BME280_pressure;Samples;Min_cycle;Max_cycle;Signal;HPM_P1;HPM_P2
2024/02/29 00:01:57;;;;;;;12.13;8.90;;;9.30;98.50;;;;;;4935373;29;20416;-62
2024/02/29 00:04:28;;;;;;;11.57;9.53;;;9.20;98.50;;;;;;4934597;29;20263;-62
2024/02/29 00:06:56;;;;;;;11.53;9.07;;;9.10;98.40;;;;;;4935501;29;20406;-62
2024/02/29 00:09:22;;;;;;;12.33;9.13;;;9.10;98.60;;;;;;4934560;29;20407;-61
2024/02/29 00:11:49;;;;;;;11.63;9.63;;;9.10;98.70;;;;;;4935175;29;20428;-62
2024/02/29 00:14:15;;;;;;;14.20;10.00;;;9.00;98.60;;;;;;4934998;29;20183;-62
2024/02/29 00:16:43;;;;;;;14.00;9.00;;;9.00;99.10;;;;;;4935808;29;20423;-62
2024/02/29 00:19:09;;;;;;;12.37;9.07;;;9.00;99.30;;;;;;4954305;29;20409;-62
2024/02/29 00:21:35;;;;;;;11.40;7.80;;;9.00;99.30;;;;;;4952797;29;20415;-62
2024/02/29 00:24:01;;;;;;;11.57;8.70;;;9.00;99.30;;;;;;4935038;29;20473;-62
2024/02/29 00:26:27;;;;;;;12.03;8.77;;;8.90;99.50;;;;;;4934495;29;20498;-62
2024/02/29 00:28:53;;;;;;;11.73;8.83;;;8.90;99.90;;;;;;4934720;29;20225;-62
2024/02/29 00:31:18;;;;;;;10.47;8.30;;;8.90;99.90;;;;;;4927594;29;20519;-62
2024/02/29 00:33:44;;;;;;;12.40;9.23;;;8.80;99.90;;;;;;4934642;29;20217;-62
2024/02/29 00:36:10;;;;;;;11.90;9.03;;;8.80;99.90;;;;;;4935048;29;20190;-62
2024/02/29 00:38:36;;;;;;;12.80;8.60;;;8.80;99.90;;;;;;4934464;29;20210;-62
2024/02/29 00:41:02;;;;;;;10.67;8.20;;;8.80;99.90;;;;;;4934993;29;20175;-62
2024/02/29 00:43:28;;;;;;;12.20;8.80;;;8.80;99.90;;;;;;4919530;29;20471;-62
2024/02/29 00:45:54;;;;;;;10.47;8.10;;;8.80;99.90;;;;;;4933554;29;20413;-62
2024/02/29 00:48:19;;;;;;;8.73;7.60;;;8.80;99.90;;;;;;4935201;29;20202;-62
2024/02/29 00:50:45;;;;;;;14.87;9.10;;;8.80;99.90;;;;;;4934552;29;20174;-62
2024/02/29 00:53:11;;;;;;;12.67;9.13;;;8.90;99.80;;;;;;4940292;29;20173;-62
2024/02/29 00:55:37;;;;;;;12.57;9.20;;;8.80;99.80;;;;;;4956230;28;20685;-62
2024/02/29 00:58:03;;;;;;;13.60;9.50;;;8.80;99.90;;;;;;4957193;29;20182;-62
2024/02/29 01:00:29;;;;;;;13.53;8.43;;;8.80;99.90;;;;;;4947165;29;20418;-62
2024/02/29 01:02:55;;;;;;;11.77;8.27;;;8.90;99.90;;;;;;4938051;29;20212;-62
2024/02/29 01:05:21;;;;;;;13.10;9.10;;;8.90;99.90;;;;;;4937970;29;20179;-62
2024/02/29 01:07:47;;;;;;;11.97;8.90;;;7.60;99.20;;;;;;4938053;29;20505;-62
2024/02/29 01:10:13;;;;;;;13.40;8.40;;;8.90;99.50;;;;;;4938089;29;20959;-62
2024/02/29 01:12:41;;;;;;;10.17;8.43;;;8.90;99.40;;;;;;4937290;29;20212;-62
2024/02/29 01:15:08;;;;;;;14.80;9.30;;;8.90;99.20;;;;;;4937777;29;20905;-62
2024/02/29 01:17:35;;;;;;;11.40;8.90;;;8.90;99.30;;;;;;4937115;29;20407;-62
2024/02/29 01:20:01;;;;;;;11.87;8.90;;;8.90;99.90;;;;;;4937920;29;20527;-62
2024/02/29 01:22:27;;;;;;;13.20;8.87;;;9.10;99.90;;;;;;4931219;29;20559;-61
2024/02/29 01:24:53;;;;;;;11.10;8.93;;;;;;;;;;4937527;29;20491;-62
2024/02/29 01:27:18;;;;;;;12.20;8.23;;;8.90;99.40;;;;;;4937531;29;20265;-61
2024/02/29 01:29:44;;;;;;;11.47;8.53;;;8.90;99.60;;;;;;4950425;29;20508;-62
2024/02/29 01:32:10;;;;;;;13.03;9.17;;;8.80;99.50;;;;;;4957001;29;20177;-62
2024/02/29 01:34:36;;;;;;;14.50;8.80;;;8.60;99.90;;;;;;4956239;29;20420;-62
2024/02/29 01:37:03;;;;;;;12.17;8.13;;;8.80;99.90;;;;;;4950455;29;20261;-62
2024/02/29 01:39:29;;;;;;;13.67;8.47;;;8.80;99.90;;;;;;4937047;29;20521;-61
2024/02/29 01:41:56;;;;;;;13.07;9.17;;;8.70;99.90;;;;;;4934625;29;20497;-62
2024/02/29 01:44:22;;;;;;;14.07;8.17;;;8.70;99.90;;;;;;4930775;29;20504;-62
2024/02/29 01:46:48;;;;;;;13.07;8.90;;;8.70;99.90;;;;;;4935652;29;20485;-62
2024/02/29 01:49:16;;;;;;;12.20;8.07;;;8.70;99.90;;;;;;4948734;29;20449;-62
2024/02/29 01:51:43;;;;;;;13.13;9.60;;;8.70;99.90;;;;;;4955953;29;20191;-61
2024/02/29 01:54:10;;;;;;;14.50;9.50;;;8.70;99.90;;;;;;4956616;29;20406;-62
2024/02/29 01:56:36;;;;;;;11.80;8.60;;;8.60;99.90;;;;;;4954036;29;20416;-61
2024/02/29 01:59:03;;;;;;;11.97;8.13;;;8.60;99.90;;;;;;4937402;29;20882;-62
2024/02/29 02:01:29;;;;;;;13.13;9.07;;;8.50;99.90;;;;;;4936701;29;20418;-62
2024/02/29 02:03:55;;;;;;;11.53;8.80;;;8.50;99.90;;;;;;4937030;29;20462;-62
2024/02/29 02:06:20;;;;;;;12.93;8.97;;;8.50;99.90;;;;;;4955729;28;20265;-62
2024/02/29 02:08:46;;;;;;;10.83;8.33;;;8.50;99.90;;;;;;4950890;29;20458;-62
2024/02/29 02:11:12;;;;;;;13.60;9.80;;;8.50;99.90;;;;;;4936974;29;20193;-62
2024/02/29 02:13:39;;;;;;;13.80;8.67;;;8.50;99.90;;;;;;4931750;29;20230;-61
2024/02/29 02:16:05;;;;;;;12.00;9.50;;;8.50;99.90;;;;;;4937055;29;20186;-62
2024/02/29 02:18:32;;;;;;;11.50;8.93;;;8.40;99.90;;;;;;4936166;29;20410;-62
2024/02/29 02:20:57;;;;;;;13.43;8.80;;;8.40;99.90;;;;;;4936980;29;20410;-62
2024/02/29 02:23:23;;;;;;;11.10;8.47;;;8.40;99.90;;;;;;4936464;29;21012;-62
2024/02/29 02:25:49;;;;;;;11.43;8.70;;;8.40;99.90;;;;;;4936018;29;20246;-62
2024/02/29 02:28:15;;;;;;;13.07;8.03;;;8.40;99.90;;;;;;4936276;29;20490;-62
2024/02/29 02:30:41;;;;;;;14.97;8.33;;;8.40;99.90;;;;;;4936025;29;20191;-62
2024/02/29 02:33:07;;;;;;;12.83;8.87;;;8.50;99.90;;;;;;4936791;29;20249;-62
2024/02/29 02:35:33;;;;;;;12.60;9.20;;;8.50;99.90;;;;;;4935816;29;20991;-62
2024/02/29 02:38:03;;;;;;;13.00;9.20;;;8.40;99.90;;;;;;4936511;29;20473;-62
2024/02/29 02:40:29;;;;;;;15.90;10.77;;;8.40;99.90;;;;;;4935856;29;20467;-61
2024/02/29 02:42:54;;;;;;;11.77;9.17;;;8.60;99.90;;;;;;4936018;29;20457;-62
2024/02/29 02:45:21;;;;;;;14.07;9.33;;;8.40;99.90;;;;;;4936436;29;20462;-62
2024/02/29 02:47:46;;;;;;;13.40;9.00;;;8.40;99.90;;;;;;4935541;29;20418;-62
2024/02/29 02:50:14;;;;;;;13.47;8.90;;;8.30;99.90;;;;;;4936272;29;20422;-62
2024/02/29 02:52:40;;;;;;;11.23;8.50;;;8.30;99.90;;;;;;4935608;29;20233;-62
2024/02/29 02:55:06;;;;;;;12.50;9.30;;;8.30;99.90;;;;;;4936280;29;20402;-62
2024/02/29 02:57:32;;;;;;;14.53;9.70;;;8.40;99.90;;;;;;4935427;29;20485;-62
2024/02/29 02:59:58;;;;;;;15.67;9.07;;;8.40;99.90;;;;;;4935933;29;20415;-62
2024/02/29 03:02:23;;;;;;;12.40;8.63;;;8.40;99.90;;;;;;4935705;29;20230;-62
2024/02/29 03:04:49;;;;;;;14.00;9.03;;;8.40;99.90;;;;;;4935493;29;20182;-62
2024/02/29 03:07:15;;;;;;;12.37;9.37;;;8.40;99.90;;;;;;4935978;29;20189;-62
2024/02/29 03:09:41;;;;;;;13.40;9.50;;;8.50;99.90;;;;;;4935448;29;20225;-62
2024/02/29 03:12:07;;;;;;;13.37;9.27;;;8.50;99.90;;;;;;4935699;29;20549;-62
2024/02/29 03:14:33;;;;;;;10.30;8.90;;;8.60;99.40;;;;;;4935327;29;20185;-61
2024/02/29 03:16:59;;;;;;;15.00;10.03;;;8.60;98.50;;;;;;4935767;29;20414;-62
2024/02/29 03:19:24;;;;;;;12.53;8.73;;;8.60;99.20;;;;;;4936014;29;20186;-62
2024/02/29 03:21:50;;;;;;;9.90;7.60;;;8.60;98.90;;;;;;4935146;29;20194;-62
2024/02/29 03:24:16;;;;;;;12.47;8.63;;;8.50;96.80;;;;;;4935509;29;20240;-62
2024/02/29 03:26:42;;;;;;;12.60;9.63;;;8.60;96.40;;;;;;4934786;29;20182;-62
2024/02/29 03:29:08;;;;;;;15.80;10.03;;;8.60;97.30;;;;;;4935774;29;20466;-62
2024/02/29 03:31:33;;;;;;;13.90;8.83;;;8.70;97.70;;;;;;4935186;29;20189;-62
2024/02/29 03:34:02;;;;;;;11.87;9.10;;;8.70;99.20;;;;;;4935669;29;20793;-62
2024/02/29 03:36:28;;;;;;;14.63;9.80;;;8.60;98.00;;;;;;4935088;29;20178;-62
2024/02/29 03:38:53;;;;;;;13.30;8.67;;;8.60;98.30;;;;;;4934970;29;20921;-62
2024/02/29 03:41:19;;;;;;;13.27;9.10;;;8.60;98.80;;;;;;4935507;29;20582;-62
2024/02/29 03:43:45;;;;;;;13.77;9.37;;;8.60;98.50;;;;;;4935050;29;20213;-62
2024/02/29 03:46:11;;;;;;;13.57;9.93;;;8.60;99.10;;;;;;4935251;29;20173;-62
2024/02/29 03:48:37;;;;;;;14.00;9.77;;;;;;;;;;4934747;29;20185;-62
2024/02/29 03:51:02;;;;;;;14.33;10.87;;;8.60;99.90;;;;;;4935558;29;20232;-62
2024/02/29 03:53:28;;;;;;;14.20;9.80;;;8.60;99.90;;;;;;4935358;29;20999;-62
2024/02/29 03:55:54;;;;;;;13.60;9.60;;;8.70;98.90;;;;;;4934731;29;20411;-62
2024/02/29 03:58:20;;;;;;;14.10;9.40;;;8.60;99.50;;;;;;4935208;29;20200;-62
2024/02/29 04:00:46;;;;;;;19.20;10.57;;;8.60;99.10;;;;;;4934374;29;20427;-62
2024/02/29 04:03:11;;;;;;;15.53;11.00;;;8.60;99.90;;;;;;4935353;29;20205;-62
2024/02/29 04:05:37;;;;;;;14.60;10.50;;;8.60;98.90;;;;;;4934584;29;20518;-62
2024/02/29 04:08:03;;;;;;;18.03;11.07;;;8.60;98.40;;;;;;4934514;29;20653;-61
2024/02/29 04:10:30;;;;;;;16.40;11.07;;;8.60;98.20;;;;;;4935270;29;20544;-63
2024/02/29 04:12:58;;;;;;;21.67;11.77;;;8.60;98.00;;;;;;4934530;29;20510;-62
2024/02/29 04:15:23;;;;;;;18.53;12.37;;;8.60;98.80;;;;;;4934643;29;20746;-62
2024/02/29 04:17:49;;;;;;;14.67;9.30;;;8.50;98.30;;;;;;4934335;29;20469;-62
2024/02/29 04:20:15;;;;;;;17.17;11.70;;;8.50;99.00;;;;;;4926141;29;20465;-62
2024/02/29 04:22:41;;;;;;;16.80;10.43;;;8.50;98.70;;;;;;4934154;29;20225;-62
2024/02/29 04:25:10;;;;;;;16.90;10.53;;;8.50;98.50;;;;;;4936349;29;20182;-62
2024/02/29 04:27:36;;;;;;;15.50;9.30;;;8.50;98.90;;;;;;4929083;29;20713;-61
2024/02/29 04:30:03;;;;;;;14.10;9.40;;;8.60;99.90;;;;;;4954016;28;20414;-62
2024/02/29 04:32:29;;;;;;;13.77;10.53;;;8.60;98.60;;;;;;4937896;29;20434;-62
2024/02/29 04:34:54;;;;;;;11.80;9.13;;;8.60;97.80;;;;;;4938009;29;20428;-61
2024/02/29 04:37:20;;;;;;;14.60;9.77;;;8.60;98.60;;;;;;4938547;29;20488;-61
2024/02/29 04:39:46;;;;;;;13.97;10.13;;;8.70;97.60;;;;;;4937800;29;20687;-62
2024/02/29 04:42:12;;;;;;;16.60;11.33;;;8.70;96.70;;;;;;4938104;29;20466;-62
2024/02/29 04:44:38;;;;;;;13.07;11.13;;;8.70;97.10;;;;;;4937570;29;20710;-61
2024/02/29 04:47:03;;;;;;;17.50;10.50;;;8.60;96.80;;;;;;4938035;29;20188;-62
2024/02/29 04:49:29;;;;;;;14.77;11.13;;;8.60;96.30;;;;;;4938540;29;20177;-62
2024/02/29 04:51:55;;;;;;;14.67;11.50;;;8.60;96.00;;;;;;4937529;29;20414;-62
2024/02/29 04:54:21;;;;;;;14.90;10.70;;;8.60;97.30;;;;;;4938396;29;20185;-62
2024/02/29 04:56:46;;;;;;;13.47;9.80;;;8.60;96.80;;;;;;4937675;29;20198;-62
2024/02/29 04:59:12;;;;;;;12.20;9.30;;;8.50;96.60;;;;;;4937462;29;20188;-62
2024/02/29 05:01:38;;;;;;;12.33;9.47;;;8.50;96.20;;;;;;4937701;29;20684;-62
2024/02/29 05:04:04;;;;;;;8.80;7.90;;;8.50;95.50;;;;;;4938116;29;20453;-62
2024/02/29 05:06:30;;;;;;;12.37;9.20;;;8.50;94.40;;;;;;4937808;29;20178;-62
2024/02/29 05:08:55;;;;;;;13.33;9.13;;;8.50;94.00;;;;;;4937567;29;20264;-61
2024/02/29 05:11:21;;;;;;;15.33;11.87;;;8.60;96.00;;;;;;4938067;29;20205;-62
2024/02/29 05:13:48;;;;;;;11.97;8.10;;;8.60;95.10;;;;;;4937561;29;20526;-62
2024/02/29 05:16:18;;;;;;;11.73;9.97;;;8.50;94.20;;;;;;4951231;29;20535;-61
2024/02/29 05:18:44;;;;;;;10.03;8.43;;;8.40;97.10;;;;;;4929858;29;20513;-61
2024/02/29 05:21:10;;;;;;;11.70;10.10;;;8.30;93.40;;;;;;4937141;29;20543;-62
2024/02/29 05:23:36;;;;;;;9.60;6.60;;;8.40;91.40;;;;;;4937226;29;20205;-61
2024/02/29 05:26:04;;;;;;;11.50;9.80;;;8.40;94.40;;;;;;4935442;29;20421;-62
2024/02/29 05:28:30;;;;;;;10.30;8.07;;;8.50;91.90;;;;;;4932103;29;20881;-62
2024/02/29 05:30:56;;;;;;;11.10;7.90;;;8.50;91.50;;;;;;4937004;29;20473;-62
2024/02/29 05:33:23;;;;;;;11.40;7.77;;;8.60;90.50;;;;;;4937705;29;20412;-61
2024/02/29 05:35:51;;;;;;;8.97;8.07;;;8.50;89.40;;;;;;4937083;29;20406;-62
2024/02/29 05:38:17;;;;;;;9.83;7.77;;;8.50;90.50;;;;;;4937815;29;20489;-61
2024/02/29 05:40:43;;;;;;;13.50;9.70;;;8.60;90.10;;;;;;4935964;29;20504;-61
2024/02/29 05:43:09;;;;;;;11.00;9.43;;;8.60;87.80;;;;;;4936877;29;20890;-62
2024/02/29 05:45:35;;;;;;;9.83;6.63;;;8.40;83.80;;;;;;4936881;29;20497;-61
2024/02/29 05:48:00;;;;;;;11.40;9.20;;;8.30;84.80;;;;;;4937129;29;20423;-62
2024/02/29 05:50:26;;;;;;;8.83;6.60;;;8.30;85.60;;;;;;4937486;29;20179;-62
2024/02/29 05:52:52;;;;;;;10.10;8.70;;;8.30;88.10;;;;;;4936583;29;20406;-61
2024/02/29 05:55:18;;;;;;;12.20;8.83;;;8.40;86.50;;;;;;4937338;29;20208;-61
2024/02/29 05:57:43;;;;;;;10.07;7.40;;;8.40;84.70;;;;;;4936416;29;20639;-61
2024/02/29 06:00:10;;;;;;;10.30;9.30;;;8.40;86.30;;;;;;4944046;29;20186;-61
2024/02/29 06:02:36;;;;;;;8.87;6.80;;;8.30;82.50;;;;;;4936888;28;20221;-62
2024/02/29 06:05:02;;;;;;;10.83;8.30;;;8.20;82.30;;;;;;4936343;29;20413;-61
2024/02/29 06:07:28;;;;;;;9.23;8.10;;;8.20;82.60;;;;;;4931313;29;20418;-61
2024/02/29 06:09:54;;;;;;;16.13;10.10;;;8.30;82.60;;;;;;4936287;29;20477;-62
2024/02/29 06:12:20;;;;;;;8.20;6.00;;;8.40;81.80;;;;;;4937290;29;20196;-62
2024/02/29 06:14:47;;;;;;;9.33;7.43;;;8.30;79.90;;;;;;4936480;29;20446;-61
2024/02/29 06:17:13;;;;;;;7.80;7.10;;;8.40;80.00;;;;;;4936756;29;20417;-62
2024/02/29 06:19:39;;;;;;;7.40;6.60;;;8.40;79.80;;;;;;4936947;29;20425;-61
2024/02/29 06:22:08;;;;;;;8.07;7.20;;;8.40;79.00;;;;;;4927326;29;20418;-61
2024/02/29 06:24:34;;;;;;;9.27;7.70;;;8.40;79.20;;;;;;4936859;29;20253;-61
2024/02/29 06:27:00;;;;;;;9.10;7.33;;;8.50;79.90;;;;;;4935928;29;20468;-62
2024/02/29 06:29:26;;;;;;;12.07;7.53;;;8.60;79.10;;;;;;4936665;29;20461;-61
2024/02/29 06:31:52;;;;;;;8.63;6.20;;;8.50;78.90;;;;;;4935437;29;20426;-62
2024/02/29 06:34:18;;;;;;;9.17;7.17;;;8.50;78.70;;;;;;4936560;29;20178;-62
2024/02/29 06:36:44;;;;;;;10.23;6.80;;;8.50;80.00;;;;;;4936014;29;20193;-62
2024/02/29 06:39:10;;;;;;;8.37;6.07;;;8.60;80.20;;;;;;4938575;29;20502;-61
2024/02/29 06:41:38;;;;;;;7.17;6.03;;;8.30;79.80;;;;;;4936207;29;20505;-61
2024/02/29 06:44:06;;;;;;;7.77;6.93;;;8.40;81.30;;;;;;4937254;29;20561;-61
2024/02/29 06:46:32;;;;;;;7.37;6.20;;;8.50;80.90;;;;;;4934582;29;20414;-62
2024/02/29 06:49:02;;;;;;;6.73;6.03;;;8.50;80.90;;;;;;4935652;29;20418;-61
2024/02/29 06:51:28;;;;;;;6.37;5.60;;;8.40;81.00;;;;;;4935748;29;20418;-61
2024/02/29 06:53:54;;;;;;;8.13;6.57;;;8.30;81.80;;;;;;4935390;29;20413;-61
2024/02/29 06:56:20;;;;;;;9.23;8.33;;;8.30;81.80;;;;;;4936322;29;20509;-61
2024/02/29 06:58:46;;;;;;;8.23;6.83;;;8.40;82.70;;;;;;4950213;29;20527;-61
2024/02/29 07:01:15;;;;;;;7.17;6.17;;;8.50;82.80;;;;;;4937349;29;20964;-62
2024/02/29 07:03:41;;;;;;;9.70;7.53;;;8.60;82.50;;;;;;4935977;29;20301;-61
2024/02/29 07:06:06;;;;;;;7.47;6.70;;;8.60;82.50;;;;;;4934746;29;20498;-61
2024/02/29 07:08:36;;;;;;;8.33;7.43;;;8.40;81.20;;;;;;4935303;29;20204;-61
2024/02/29 07:11:03;;;;;;;6.67;5.30;;;8.50;83.10;;;;;;4935233;29;20414;-61
2024/02/29 07:13:29;;;;;;;9.60;6.30;;;8.60;82.90;;;;;;4935818;29;20913;-62
2024/02/29 07:15:55;;;;;;;9.20;7.10;;;8.50;82.10;;;;;;4935267;29;20421;-61
2024/02/29 07:18:22;;;;;;;7.73;5.80;;;8.50;84.00;;;;;;4935706;29;20424;-61
2024/02/29 07:20:47;;;;;;;7.50;6.20;;;8.50;83.20;;;;;;4935191;29;20418;-61
2024/02/29 07:23:13;;;;;;;11.20;9.33;;;8.60;83.20;;;;;;4935679;29;20467;-61
2024/02/29 07:25:39;;;;;;;7.60;6.00;;;8.60;83.50;;;;;;4935793;29;20403;-63
2024/02/29 07:28:08;;;;;;;7.50;6.47;;;8.70;83.40;;;;;;4934563;29;20549;-61
2024/02/29 07:30:34;;;;;;;8.00;6.60;;;8.70;84.10;;;;;;4935800;29;20248;-62
2024/02/29 07:33:04;;;;;;;7.77;6.20;;;8.40;82.80;;;;;;4934769;29;20902;-62
2024/02/29 07:35:31;;;;;;;7.50;5.73;;;8.50;83.70;;;;;;4935524;29;20174;-63
2024/02/29 07:37:57;;;;;;;5.80;5.27;;;8.70;84.60;;;;;;4934638;29;20943;-63
2024/02/29 07:40:23;;;;;;;6.60;5.43;;;8.50;82.70;;;;;;4935551;29;20403;-63
2024/02/29 07:42:49;;;;;;;6.10;5.50;;;8.60;83.60;;;;;;4934820;29;20817;-62
2024/02/29 07:45:15;;;;;;;7.93;6.70;;;8.70;81.70;;;;;;4935739;29;20182;-63
2024/02/29 07:47:41;;;;;;;6.97;6.10;;;8.60;81.50;;;;;;4935200;29;20747;-61
2024/02/29 07:50:09;;;;;;;6.47;5.63;;;8.70;81.80;;;;;;4934889;29;20415;-61
2024/02/29 07:52:38;;;;;;;6.50;5.97;;;8.70;80.80;;;;;;4935387;29;20182;-61
2024/02/29 07:55:10;;;;;;;5.47;4.97;;;8.80;79.40;;;;;;4925828;29;20810;-60
2024/02/29 07:57:36;;;;;;;6.00;5.50;;;8.80;78.70;;;;;;4935299;29;20759;-61
2024/02/29 08:00:03;;;;;;;5.97;5.57;;;8.80;79.10;;;;;;4934720;29;20425;-60
2024/02/29 08:02:29;;;;;;;7.93;5.10;;;8.90;78.60;;;;;;4961457;28;20559;-62
2024/02/29 08:04:55;;;;;;;5.67;5.17;;;9.10;79.20;;;;;;4936843;29;20499;-62
2024/02/29 08:07:21;;;;;;;4.93;4.60;;;9.20;78.60;;;;;;4923045;29;20188;-62
2024/02/29 08:09:47;;;;;;;5.30;4.80;;;9.20;75.30;;;;;;4939250;29;20257;-62
2024/02/29 08:12:12;;;;;;;4.33;3.70;;;9.30;75.80;;;;;;4953025;29;20214;-63
2024/02/29 08:14:38;;;;;;;4.00;3.60;;;9.40;73.80;;;;;;4939172;29;20444;-62
2024/02/29 08:17:04;;;;;;;5.50;5.00;;;9.40;73.20;;;;;;4938311;29;20178;-64
2024/02/29 08:19:30;;;;;;;6.87;6.43;;;9.60;83.10;;;;;;4939039;29;20542;-63
2024/02/29 08:21:56;;;;;;;5.00;4.60;;;10.20;98.90;;;;;;4937784;29;21699;-63
2024/02/29 08:24:22;;;;;;;5.57;5.13;;;11.30;99.90;;;;;;4938889;29;20690;-61
2024/02/29 08:26:48;;;;;;;5.57;5.03;;;12.30;99.90;;;;;;4938396;29;20452;-61
2024/02/29 08:29:16;;;;;;;5.13;4.63;;;13.00;92.40;;;;;;4941871;29;20287;-61
2024/02/29 08:31:43;;;;;;;7.07;5.80;;;13.70;92.00;;;;;;4938550;29;20453;-61
2024/02/29 08:34:09;;;;;;;5.23;4.83;;;14.30;87.20;;;;;;4944350;29;20863;-61
2024/02/29 08:36:35;;;;;;;4.80;4.40;;;14.60;80.40;;;;;;4929753;29;20527;-61
2024/02/29 08:39:00;;;;;;;5.47;5.07;;;15.00;74.80;;;;;;4937558;29;20456;-61
2024/02/29 08:41:26;;;;;;;7.40;6.90;;;15.20;69.90;;;;;;4953486;29;20180;-61
2024/02/29 08:43:52;;;;;;;3.63;3.33;;;15.30;67.90;;;;;;4937364;29;20205;-61
2024/02/29 08:46:18;;;;;;;3.33;3.13;;;15.50;65.00;;;;;;4938398;29;20418;-61
2024/02/29 08:48:43;;;;;;;4.13;3.83;;;15.60;64.80;;;;;;4938045;29;20201;-61
2024/02/29 08:51:09;;;;;;;4.73;4.43;;;15.80;63.60;;;;;;4952408;29;20185;-61
2024/02/29 08:53:35;;;;;;;4.40;4.13;;;16.00;62.60;;;;;;4938458;29;20181;-61
2024/02/29 08:56:01;;;;;;;4.20;3.73;;;16.10;60.20;;;;;;4937688;29;20514;-61
2024/02/29 08:58:27;;;;;;;4.50;4.13;;;16.20;60.20;;;;;;4938109;29;20699;-61
2024/02/29 09:00:54;;;;;;;3.90;3.60;;;16.10;58.10;;;;;;4937709;29;20409;-64
2024/02/29 09:03:20;;;;;;;4.13;3.83;;;16.10;59.40;;;;;;4936236;29;20807;-63
2024/02/29 09:05:46;;;;;;;4.27;3.97;;;16.30;59.40;;;;;;4938442;29;20508;-63
2024/02/29 09:08:12;;;;;;;5.00;4.60;;;16.40;60.00;;;;;;4937467;29;20421;-63
2024/02/29 09:10:38;;;;;;;6.93;5.43;;;16.30;57.70;;;;;;4938001;29;20520;-67
2024/02/29 09:13:04;;;;;;;4.77;4.37;;;16.30;58.70;;;;;;4937503;29;20501;-63
2024/02/29 09:15:31;;;;;;;4.83;3.43;;;16.20;54.50;;;;;;4937631;29;20264;-63
2024/02/29 09:17:56;;;;;;;158.70;85.97;;;15.60;54.40;;;;;;4937421;29;20421;-66
2024/02/29 09:20:22;;;;;;;106.97;63.40;;;15.00;55.50;;;;;;4937450;29;20428;-63
2024/02/29 09:22:51;;;;;;;5.63;5.23;;;14.70;57.00;;;;;;4937125;29;20247;-64
2024/02/29 09:25:17;;;;;;;5.10;4.60;;;14.20;56.60;;;;;;4936873;29;20277;-64
2024/02/29 09:27:44;;;;;;;5.53;5.03;;;13.90;57.40;;;;;;4928472;29;20517;-63
2024/02/29 09:30:11;;;;;;;4.30;4.00;;;13.60;58.20;;;;;;4940031;29;20532;-63
2024/02/29 09:32:37;;;;;;;4.93;4.53;;;13.20;58.40;;;;;;4934613;29;20991;-63
2024/02/29 09:35:06;;;;;;;5.63;5.13;;;13.20;59.40;;;;;;4935938;29;20426;-63
2024/02/29 09:37:32;;;;;;;4.63;3.90;;;13.30;59.10;;;;;;4937887;29;20201;-63
2024/02/29 09:39:58;;;;;;;17.73;12.33;;;13.20;58.60;;;;;;4937031;29;20425;-63
2024/02/29 09:42:26;;;;;;;20.20;15.13;;;13.10;58.90;;;;;;4931147;29;20492;-63
2024/02/29 09:44:53;;;;;;;4.50;4.10;;;13.00;59.60;;;;;;4937398;29;20417;-62
2024/02/29 09:47:22;;;;;;;4.07;3.67;;;13.00;59.60;;;;;;4937729;29;20472;-64
2024/02/29 09:49:48;;;;;;;4.73;4.20;;;12.90;59.90;;;;;;4926502;29;20425;-65
2024/02/29 09:52:14;;;;;;;3.90;3.50;;;13.00;60.40;;;;;;4936578;29;20431;-64
2024/02/29 09:54:40;;;;;;;5.87;5.37;;;13.10;62.00;;;;;;4936952;29;20417;-65
2024/02/29 09:57:10;;;;;;;3.90;3.60;;;13.10;61.50;;;;;;4935947;29;20449;-65
2024/02/29 09:59:38;;;;;;;4.13;3.73;;;13.10;60.50;;;;;;4937153;29;20414;-65
2024/02/29 10:02:05;;;;;;;4.70;4.40;;;12.80;61.20;;;;;;4935990;29;20942;-65
2024/02/29 10:04:31;;;;;;;5.43;4.97;;;12.80;62.00;;;;;;4937112;29;20440;-65
2024/02/29 10:06:57;;;;;;;4.10;3.80;;;12.60;61.80;;;;;;4936599;29;20421;-64
2024/02/29 10:09:24;;;;;;;4.10;3.80;;;12.40;62.70;;;;;;4936746;29;20408;-65
2024/02/29 10:11:54;;;;;;;4.60;4.13;;;12.40;63.60;;;;;;4937013;29;20285;-65
2024/02/29 10:14:22;;;;;;;6.17;4.57;;;12.20;63.60;;;;;;4936660;29;20468;-65
2024/02/29 10:16:56;;;;;;;4.90;4.27;;;12.40;64.70;;;;;;4936773;29;20419;-65
2024/02/29 10:19:24;;;;;;;4.80;4.30;;;12.50;65.20;;;;;;4936779;29;20416;-65
2024/02/29 10:21:51;;;;;;;4.30;4.00;;;12.70;64.90;;;;;;4936777;29;20417;-65
2024/02/29 10:24:26;;;;;;;4.50;4.20;;;12.80;65.50;;;;;;4928905;29;20466;-65
2024/02/29 10:27:02;;;;;;;5.13;4.60;;;12.80;64.10;;;;;;4934957;29;20554;-65
2024/02/29 10:29:29;;;;;;;5.37;5.07;;;12.80;65.50;;;;;;4937032;29;20468;-65
2024/02/29 10:32:01;;;;;;;4.97;4.57;;;12.70;66.30;;;;;;4936923;29;20508;-65
2024/02/29 10:34:26;;;;;;;4.80;4.40;;;12.60;65.20;;;;;;4930572;29;20416;-65
2024/02/29 10:36:53;;;;;;;4.30;4.00;;;12.50;65.40;;;;;;4951218;29;20425;-65
2024/02/29 10:39:19;;;;;;;4.30;4.00;;;12.50;66.20;;;;;;4929016;29;20791;-64
2024/02/29 10:41:49;;;;;;;5.23;4.60;;;12.50;67.20;;;;;;4967117;28;20404;-65
2024/02/29 10:44:20;;;;;;;5.13;4.77;;;12.60;67.50;;;;;;4935828;29;20267;-64
2024/02/29 10:46:49;;;;;;;5.00;4.60;;;12.60;67.80;;;;;;4936765;29;20409;-65
2024/02/29 10:49:35;;;;;;;5.13;4.70;;;12.60;68.80;;;;;;4935752;29;20423;-64
2024/02/29 10:52:18;;;;;;;4.93;4.50;;;12.60;68.90;;;;;;4935646;29;20404;-65
2024/02/29 10:55:05;;;;;;;4.53;4.17;;;12.60;69.10;;;;;;4936391;29;20420;-65
2024/02/29 10:57:42;;;;;;;4.27;3.97;;;12.70;69.70;;;;;;4936305;29;20429;-65
2024/02/29 11:00:11;;;;;;;4.50;4.10;;;12.80;70.10;;;;;;4935629;29;20406;-65
2024/02/29 11:02:38;;;;;;;5.00;4.60;;;13.00;69.60;;;;;;4936080;29;20499;-65
2024/02/29 11:05:05;;;;;;;4.70;3.80;;;13.00;69.40;;;;;;4935515;29;20405;-64
2024/02/29 11:07:34;;;;;;;4.47;4.10;;;13.10;69.50;;;;;;4935720;29;20921;-65
2024/02/29 11:10:04;;;;;;;4.97;4.40;;;13.00;70.20;;;;;;4935473;29;20405;-64
2024/02/29 11:12:30;;;;;;;4.93;4.53;;;13.10;70.00;;;;;;4930464;29;20418;-64
2024/02/29 11:14:58;;;;;;;4.40;4.00;;;13.10;69.50;;;;;;4935951;29;20412;-65
2024/02/29 11:17:33;;;;;;;7.10;4.87;;;13.10;69.30;;;;;;4935994;29;20428;-65
2024/02/29 11:20:03;;;;;;;5.87;5.33;;;13.20;70.20;;;;;;4935585;29;20405;-62
2024/02/29 11:22:33;;;;;;;5.20;4.07;;;13.10;70.00;;;;;;4935468;29;20956;-65
2024/02/29 11:25:04;;;;;;;4.23;3.80;;;13.00;71.30;;;;;;4935195;29;20411;-62
2024/02/29 11:27:33;;;;;;;5.47;4.97;;;13.20;71.10;;;;;;4935552;29;20473;-64
2024/02/29 11:30:03;;;;;;;3.77;3.50;;;13.20;71.50;;;;;;4935514;29;20466;-62
2024/02/29 11:32:32;;;;;;;7.40;6.80;;;13.30;71.60;;;;;;4929930;29;20493;-64
2024/02/29 11:35:01;;;;;;;6.27;5.67;;;13.20;70.60;;;;;;4935426;29;20898;-65
2024/02/29 11:37:32;;;;;;;6.07;5.67;;;13.30;71.90;;;;;;4935632;29;20425;-64
2024/02/29 11:40:05;;;;;;;5.20;4.70;;;13.20;71.00;;;;;;4935334;29;20406;-65
2024/02/29 11:42:30;;;;;;;4.30;4.00;;;13.20;71.80;;;;;;4935293;29;20494;-64
2024/02/29 11:44:56;;;;;;;4.10;3.70;;;13.30;71.20;;;;;;4935023;29;20922;-65
2024/02/29 11:47:22;;;;;;;5.00;4.60;;;13.30;71.10;;;;;;4934629;29;20176;-64
2024/02/29 11:49:48;;;;;;;4.90;4.60;;;13.20;72.20;;;;;;4935458;29;20185;-64
2024/02/29 11:52:15;;;;;;;4.40;4.10;;;13.20;71.40;;;;;;4934698;29;20177;-65
2024/02/29 11:54:42;;;;;;;3.83;3.53;;;13.10;71.40;;;;;;4934910;29;20443;-65
2024/02/29 11:57:10;;;;;;;3.93;3.63;;;13.10;71.60;;;;;;4934197;29;20456;-64
2024/02/29 11:59:38;;;;;;;5.07;4.70;;;13.00;72.50;;;;;;4935325;29;20452;-64
2024/02/29 12:02:07;;;;;;;4.07;3.77;;;13.00;72.70;;;;;;4934540;29;20446;-64
2024/02/29 12:04:33;;;;;;;3.97;3.67;;;13.00;72.40;;;;;;4935432;29;20440;-65
2024/02/29 12:06:59;;;;;;;6.13;5.77;;;12.90;72.40;;;;;;4934986;29;20443;-64
2024/02/29 12:09:25;;;;;;;4.57;4.17;;;12.70;72.00;;;;;;4934617;29;20220;-65
2024/02/29 12:11:51;;;;;;;3.83;3.63;;;12.70;72.70;;;;;;4949971;29;20284;-65
2024/02/29 12:14:20;;;;;;;3.93;3.63;;;12.80;73.00;;;;;;4934951;29;20427;-64
2024/02/29 12:16:46;;;;;;;5.30;4.80;;;12.90;72.60;;;;;;4935162;29;20411;-64
2024/02/29 12:19:16;;;;;;;4.13;3.83;;;12.90;72.80;;;;;;4934579;29;20422;-64
2024/02/29 12:21:42;;;;;;;4.20;3.90;;;12.90;72.30;;;;;;4935239;29;20760;-65
2024/02/29 12:24:10;;;;;;;4.10;3.80;;;12.70;71.20;;;;;;4934481;29;20996;-63
2024/02/29 12:26:38;;;;;;;4.43;4.13;;;12.80;71.70;;;;;;4935071;29;20424;-64
2024/02/29 12:29:07;;;;;;;4.50;4.20;;;12.80;72.10;;;;;;4934772;29;20837;-63
2024/02/29 12:31:33;;;;;;;3.87;3.57;;;12.80;70.90;;;;;;4935223;29;20421;-64
2024/02/29 12:34:00;;;;;;;4.97;4.53;;;12.80;71.90;;;;;;4935066;29;20413;-64
2024/02/29 12:36:27;;;;;;;5.27;4.07;;;12.90;71.20;;;;;;4934415;29;20412;-64
2024/02/29 12:38:53;;;;;;;4.90;3.97;;;12.90;70.80;;;;;;4935242;29;20472;-65
2024/02/29 12:41:20;;;;;;;4.10;3.80;;;13.00;71.20;;;;;;4934420;29;20417;-64
2024/02/29 12:43:50;;;;;;;3.57;3.30;;;13.00;71.00;;;;;;4934765;29;20493;-64
2024/02/29 12:46:16;;;;;;;4.27;3.90;;;13.10;71.20;;;;;;4934648;29;20483;-64